createdAt,value
2022-10-13T00:01:23.611Z,28.30
2022-10-13T00:03:51.947Z,26.55
2022-10-13T00:06:26.524Z,24.58
2022-10-13T00:08:59.928Z,25.85
2022-10-13T00:11:30.458Z,26.42
2022-10-13T00:14:02.599Z,28.13
2022-10-13T00:16:32.705Z,29.58
2022-10-13T00:19:00.643Z,30.00
2022-10-13T00:21:29.458Z,32.42
2022-10-13T00:23:57.767Z,31.65
2022-10-13T00:26:27.518Z,30.83
2022-10-13T00:28:56.999Z,30.60
2022-10-13T00:34:17.235Z,29.15
2022-10-13T00:36:45.203Z,30.10
2022-10-13T00:39:13.379Z,31.95
2022-10-13T00:41:41.712Z,31.30
2022-10-13T00:45:05.578Z,32.90
2022-10-13T00:47:47.307Z,33.72
2022-10-13T00:50:21.333Z,31.50
2022-10-13T00:52:58.139Z,32.05
2022-10-13T00:55:32.238Z,31.50
2022-10-13T00:58:05.392Z,31.80
2022-10-13T01:00:35.810Z,31.83
2022-10-13T01:03:04.542Z,29.90
2022-10-13T01:05:32.830Z,29.17
2022-10-13T01:08:02.552Z,29.13
2022-10-13T01:11:04.773Z,29.08
2022-10-13T01:16:29.545Z,30.67
2022-10-13T01:19:25.498Z,32.55
2022-10-13T01:22:21.904Z,30.98
2022-10-13T01:24:53.036Z,27.23
2022-10-13T01:28:04.803Z,28.60
2022-10-13T01:30:46.740Z,26.90
2022-10-13T01:36:25.803Z,27.55
2022-10-13T01:39:08.000Z,27.83
2022-10-13T01:41:40.485Z,28.67
2022-10-13T01:44:34.244Z,30.67
2022-10-13T01:47:03.505Z,28.23
2022-10-13T01:49:35.525Z,27.10
2022-10-13T01:52:10.599Z,26.38
2022-10-13T01:54:38.622Z,28.58
2022-10-13T01:57:32.480Z,27.13
2022-10-13T02:00:06.711Z,24.77
2022-10-13T02:03:17.859Z,26.50
2022-10-13T02:06:01.635Z,28.98
2022-10-13T02:11:24.132Z,29.10
2022-10-13T02:14:10.191Z,29.15
2022-10-13T02:16:44.127Z,28.90
2022-10-13T02:19:17.313Z,27.83
2022-10-13T02:21:46.105Z,28.10
2022-10-13T02:24:14.920Z,29.10
2022-10-13T02:26:43.279Z,28.60
2022-10-13T02:29:17.621Z,28.80
2022-10-13T02:31:46.675Z,27.58
2022-10-13T02:34:16.017Z,28.77
2022-10-13T02:36:48.150Z,28.80
2022-10-13T02:39:17.835Z,28.50
2022-10-13T02:41:46.043Z,29.25
2022-10-13T02:44:14.108Z,28.08
2022-10-13T02:46:42.478Z,29.10
2022-10-13T02:49:11.034Z,27.90
2022-10-13T02:51:40.385Z,25.98
2022-10-13T02:54:08.832Z,27.33
2022-10-13T02:56:36.818Z,27.48
2022-10-13T02:59:05.085Z,25.85
2022-10-13T03:01:33.254Z,27.58
2022-10-13T03:04:01.476Z,29.08
2022-10-13T03:06:29.558Z,27.30
2022-10-13T03:08:57.462Z,26.83
2022-10-13T03:11:25.548Z,28.15
2022-10-13T03:13:53.832Z,26.98
2022-10-13T03:16:21.777Z,28.10
2022-10-13T03:18:49.755Z,26.67
2022-10-13T03:21:17.876Z,26.27
2022-10-13T03:23:45.903Z,79.55
2022-10-13T03:26:14.012Z,49.45
2022-10-13T03:28:42.112Z,34.47
2022-10-13T03:31:12.159Z,26.88
2022-10-13T03:33:41.212Z,27.08
2022-10-13T03:36:10.999Z,26.45
2022-10-13T03:38:39.649Z,25.50
2022-10-13T03:41:15.768Z,25.77
2022-10-13T03:43:45.860Z,24.48
2022-10-13T03:46:17.758Z,26.30
2022-10-13T03:48:48.049Z,25.90
2022-10-13T03:51:20.107Z,25.25
2022-10-13T03:53:52.133Z,25.50
2022-10-13T03:56:24.608Z,23.10
2022-10-13T03:59:04.975Z,23.83
2022-10-13T04:01:34.522Z,24.90
2022-10-13T04:04:02.854Z,24.63
2022-10-13T04:06:31.848Z,23.77
2022-10-13T04:09:00.118Z,23.58
2022-10-13T04:11:28.136Z,22.55
2022-10-13T04:13:57.891Z,21.98
2022-10-13T04:16:29.989Z,23.05
2022-10-13T04:19:04.768Z,22.40
2022-10-13T04:21:35.087Z,22.95
2022-10-13T04:24:04.719Z,22.00
2022-10-13T04:26:36.475Z,22.95
2022-10-13T04:29:12.303Z,23.10
2022-10-13T04:31:44.032Z,21.88
2022-10-13T04:34:12.488Z,22.35
2022-10-13T04:36:40.355Z,21.65
2022-10-13T04:39:08.572Z,21.83
2022-10-13T04:41:36.589Z,22.60
2022-10-13T04:44:04.394Z,22.33
2022-10-13T04:46:32.543Z,22.45
2022-10-13T04:49:00.646Z,21.98
2022-10-13T04:51:34.178Z,22.17
2022-10-13T04:54:03.218Z,21.15
2022-10-13T04:56:31.911Z,21.30
2022-10-13T05:01:36.128Z,20.87
2022-10-13T05:04:07.754Z,20.88
2022-10-13T05:07:05.178Z,20.35
2022-10-13T05:09:29.799Z,19.33
2022-10-13T05:11:57.659Z,22.05
2022-10-13T05:14:25.601Z,20.73
2022-10-13T05:16:54.375Z,19.73
2022-10-13T05:19:22.583Z,20.92
2022-10-13T05:21:50.548Z,19.65
2022-10-13T05:24:20.968Z,19.50
2022-10-13T05:26:50.537Z,21.33
2022-10-13T05:29:18.536Z,21.15
2022-10-13T05:31:46.809Z,22.23
2022-10-13T05:34:15.129Z,21.58
2022-10-13T05:36:43.017Z,21.30
2022-10-13T05:39:11.263Z,29.85
2022-10-13T05:41:39.593Z,26.58
2022-10-13T05:44:17.681Z,23.45
2022-10-13T05:46:54.619Z,22.63
2022-10-13T05:49:22.701Z,22.20
2022-10-13T05:51:58.234Z,21.23
2022-10-13T05:54:35.978Z,19.65
2022-10-13T05:57:17.813Z,20.90
2022-10-13T06:02:53.243Z,20.40
2022-10-13T06:05:25.326Z,19.55
2022-10-13T06:07:56.083Z,24.95
2022-10-13T06:10:24.656Z,22.25
2022-10-13T06:12:52.755Z,21.40
2022-10-13T06:15:24.448Z,20.40
2022-10-13T06:17:57.927Z,20.25
2022-10-13T06:20:27.602Z,21.25
2022-10-13T06:22:56.467Z,19.00
2022-10-13T06:25:24.840Z,18.90
2022-10-13T06:27:52.690Z,17.75
2022-10-13T06:30:20.629Z,17.15
2022-10-13T06:32:48.927Z,17.70
2022-10-13T06:35:16.843Z,16.27
2022-10-13T06:37:46.648Z,16.52
2022-10-13T06:40:15.710Z,16.13
2022-10-13T06:42:49.040Z,16.23
2022-10-13T06:45:18.284Z,14.60
2022-10-13T06:47:46.590Z,14.55
2022-10-13T06:50:15.095Z,15.98
2022-10-13T06:52:44.283Z,15.70
2022-10-13T06:55:12.295Z,17.58
2022-10-13T06:57:40.197Z,15.63
2022-10-13T07:00:09.773Z,16.05
2022-10-13T07:02:38.692Z,16.92
2022-10-13T07:05:07.141Z,15.65
2022-10-13T07:07:36.143Z,16.50
2022-10-13T07:10:04.454Z,15.18
2022-10-13T07:12:32.525Z,14.25
2022-10-13T07:15:00.635Z,14.77
2022-10-13T07:17:28.597Z,15.05
2022-10-13T07:19:57.976Z,13.65
2022-10-13T07:22:27.261Z,12.07
2022-10-13T07:24:55.144Z,11.88
2022-10-13T07:27:24.265Z,10.43
2022-10-13T07:29:52.633Z,11.25
2022-10-13T07:32:20.575Z,10.32
2022-10-13T07:34:51.611Z,9.80
2022-10-13T07:37:20.081Z,9.18
2022-10-13T07:39:48.287Z,10.15
2022-10-13T07:42:17.235Z,9.73
2022-10-13T07:44:45.459Z,10.02
2022-10-13T07:47:13.919Z,8.45
2022-10-13T07:49:43.265Z,9.43
2022-10-13T07:52:11.259Z,9.45
2022-10-13T07:54:39.143Z,8.98
2022-10-13T07:57:07.066Z,9.45
2022-10-13T07:59:36.359Z,9.45
2022-10-13T08:02:04.415Z,9.63
2022-10-13T08:04:34.083Z,9.73
2022-10-13T08:07:03.509Z,10.18
2022-10-13T08:09:31.891Z,10.32
2022-10-13T08:12:01.964Z,9.88
2022-10-13T08:14:31.301Z,8.80
2022-10-13T08:16:59.519Z,8.98
2022-10-13T08:19:28.489Z,9.13
2022-10-13T08:21:58.885Z,8.48
2022-10-13T08:24:28.240Z,9.13
2022-10-13T08:26:56.422Z,7.93
2022-10-13T08:29:24.702Z,6.97
2022-10-13T08:31:54.129Z,5.97
2022-10-13T08:34:25.861Z,6.05
2022-10-13T08:36:56.758Z,6.60
2022-10-13T08:39:26.393Z,6.10
2022-10-13T08:41:56.432Z,4.07
2022-10-13T08:47:53.280Z,3.20
2022-10-13T08:50:26.126Z,2.60
2022-10-13T08:53:00.667Z,2.50
2022-10-13T08:55:49.806Z,2.58
2022-10-13T08:58:31.601Z,2.45
2022-10-13T09:04:01.020Z,2.88
2022-10-13T09:06:36.772Z,3.17
2022-10-13T09:09:15.653Z,3.40
2022-10-13T09:11:48.855Z,2.60
2022-10-13T09:14:34.043Z,2.33
2022-10-13T09:17:26.662Z,2.25
2022-10-13T09:20:20.085Z,3.03
2022-10-13T09:23:08.174Z,2.35
2022-10-13T09:25:46.482Z,2.45
2022-10-13T09:28:24.666Z,2.53
2022-10-13T09:31:14.941Z,2.20
2022-10-13T09:33:42.978Z,2.20
2022-10-13T09:36:14.835Z,2.30
2022-10-13T09:39:05.509Z,2.70
2022-10-13T09:41:39.479Z,3.33
2022-10-13T09:44:28.250Z,2.58
2022-10-13T09:47:01.179Z,2.17
2022-10-13T09:49:43.769Z,2.88
2022-10-13T09:52:18.180Z,3.22
2022-10-13T09:54:56.411Z,2.95
2022-10-13T09:57:41.765Z,2.70
2022-10-13T10:00:27.571Z,2.85
2022-10-13T10:03:13.696Z,2.75
2022-10-13T10:05:56.689Z,3.50
2022-10-13T10:09:03.287Z,2.47
2022-10-13T10:11:48.016Z,2.90
2022-10-13T10:14:29.961Z,2.50
2022-10-13T10:17:16.499Z,2.50
2022-10-13T10:20:21.231Z,2.65
2022-10-13T10:22:55.050Z,1.95
2022-10-13T10:26:10.350Z,2.20
2022-10-13T10:29:16.959Z,2.03
2022-10-13T10:32:03.827Z,2.17
2022-10-13T10:35:11.998Z,2.15
2022-10-13T10:38:02.742Z,2.05
2022-10-13T10:40:49.813Z,2.50
2022-10-13T10:43:47.239Z,2.15
2022-10-13T10:46:28.316Z,2.30
2022-10-13T10:49:02.847Z,2.08
2022-10-13T10:51:37.938Z,2.00
2022-10-13T10:54:39.140Z,2.00
2022-10-13T10:57:50.207Z,1.90
2022-10-13T11:00:22.423Z,2.10
2022-10-13T11:03:11.061Z,1.98
2022-10-13T11:06:16.626Z,2.10
2022-10-13T11:08:47.376Z,1.85
2022-10-13T11:11:28.638Z,2.35
2022-10-13T11:14:08.069Z,2.45
2022-10-13T11:16:58.688Z,2.45
2022-10-13T11:19:36.884Z,1.90
2022-10-13T11:22:05.527Z,2.40
2022-10-13T11:24:39.263Z,2.08
2022-10-13T11:27:12.647Z,2.13
2022-10-13T11:29:54.140Z,2.17
2022-10-13T11:32:41.427Z,2.13
2022-10-13T11:35:12.368Z,2.22
2022-10-13T11:38:06.744Z,1.90
2022-10-13T11:41:23.813Z,1.95
2022-10-13T11:47:20.689Z,2.17
2022-10-13T11:50:30.260Z,2.08
2022-10-13T11:53:27.945Z,2.08
2022-10-13T11:55:59.150Z,2.42
2022-10-13T11:58:33.857Z,2.00
2022-10-13T12:01:06.732Z,2.08
2022-10-13T12:03:45.871Z,2.33
2022-10-13T12:06:37.081Z,2.10
2022-10-13T12:09:19.529Z,2.40
2022-10-13T12:11:57.037Z,2.22
2022-10-13T12:14:52.533Z,1.98
2022-10-13T12:17:28.484Z,2.10
2022-10-13T12:20:01.197Z,2.58
2022-10-13T12:22:30.735Z,3.30
2022-10-13T12:25:02.161Z,2.35
2022-10-13T12:27:33.392Z,2.13
2022-10-13T12:30:02.525Z,1.80
2022-10-13T12:32:34.613Z,2.47
2022-10-13T12:35:26.056Z,1.75
2022-10-13T12:37:55.757Z,2.17
2022-10-13T12:40:24.096Z,2.50
2022-10-13T12:42:52.293Z,2.80
2022-10-13T12:45:24.499Z,2.85
2022-10-13T12:47:54.940Z,2.55
2022-10-13T12:50:25.829Z,2.60
2022-10-13T12:53:15.957Z,2.22
2022-10-13T12:56:01.408Z,3.00
2022-10-13T12:58:33.397Z,2.80
2022-10-13T13:01:07.508Z,2.95
2022-10-13T13:03:37.529Z,3.13
2022-10-13T13:06:15.184Z,2.65
2022-10-13T13:08:43.667Z,2.70
2022-10-13T13:11:35.674Z,2.40
2022-10-13T13:14:39.162Z,2.92
2022-10-13T13:17:27.661Z,2.47
2022-10-13T13:20:22.588Z,2.72
2022-10-13T13:22:51.199Z,2.80
2022-10-13T13:25:19.260Z,4.15
2022-10-13T13:27:47.572Z,3.30
2022-10-13T13:30:22.044Z,4.32
2022-10-13T13:32:51.763Z,3.05
2022-10-13T13:35:19.805Z,3.30
2022-10-13T13:37:51.439Z,3.22
2022-10-13T13:42:49.901Z,3.28
2022-10-13T13:45:22.258Z,3.05
2022-10-13T13:47:50.743Z,3.42
2022-10-13T13:50:32.261Z,3.00
2022-10-13T13:53:00.424Z,3.15
2022-10-13T13:55:30.011Z,3.85
2022-10-13T13:57:59.085Z,3.38
2022-10-13T14:00:27.557Z,5.70
2022-10-13T14:02:57.813Z,4.80
2022-10-13T14:05:26.331Z,3.72
2022-10-13T14:07:59.065Z,4.30
2022-10-13T14:10:27.485Z,2.90
2022-10-13T14:12:55.915Z,3.60
2022-10-13T14:15:28.794Z,3.63
2022-10-13T14:17:57.979Z,4.80
2022-10-13T14:20:26.385Z,5.65
2022-10-13T14:22:54.291Z,4.22
2022-10-13T14:25:22.475Z,4.00
2022-10-13T14:27:50.535Z,3.20
2022-10-13T14:30:19.286Z,3.17
2022-10-13T14:32:47.669Z,3.38
2022-10-13T14:35:15.656Z,3.65
2022-10-13T14:37:43.539Z,3.28
2022-10-13T14:40:11.690Z,3.92
2022-10-13T14:42:39.725Z,3.25
2022-10-13T14:45:16.854Z,3.53
2022-10-13T14:47:44.747Z,3.55
2022-10-13T14:50:12.731Z,3.28
2022-10-13T14:52:40.961Z,3.47
2022-10-13T14:55:09.524Z,3.20
2022-10-13T14:57:37.967Z,3.53
2022-10-13T15:00:06.504Z,2.92
2022-10-13T15:02:34.484Z,4.07
2022-10-13T15:05:02.357Z,3.75
2022-10-13T15:07:31.446Z,4.85
2022-10-13T15:10:06.722Z,4.57
2022-10-13T15:12:35.193Z,3.97
2022-10-13T15:15:04.002Z,4.20
2022-10-13T15:17:33.392Z,4.53
2022-10-13T15:20:01.724Z,3.70
2022-10-13T15:22:30.046Z,3.25
2022-10-13T15:24:57.883Z,3.00
2022-10-13T15:27:25.935Z,2.97
2022-10-13T15:29:53.880Z,3.70
2022-10-13T15:32:22.045Z,3.90
2022-10-13T15:34:56.094Z,3.47
2022-10-13T15:37:24.085Z,3.75
2022-10-13T15:39:56.933Z,3.80
2022-10-13T15:42:25.443Z,4.55
2022-10-13T15:45:10.328Z,4.65
2022-10-13T15:47:39.093Z,4.45
2022-10-13T15:50:08.935Z,4.13
2022-10-13T15:52:40.781Z,4.63
2022-10-13T15:55:11.119Z,4.63
2022-10-13T15:57:39.481Z,4.80
2022-10-13T16:00:28.421Z,6.00
2022-10-13T16:02:56.468Z,7.57
2022-10-13T16:05:24.801Z,7.97
2022-10-13T16:07:52.917Z,9.50
2022-10-13T16:10:20.772Z,13.35
2022-10-13T16:12:50.162Z,12.48
2022-10-13T16:15:19.362Z,13.40
2022-10-13T16:17:47.754Z,14.95
2022-10-13T16:20:17.314Z,15.73
2022-10-13T16:22:45.599Z,14.40
2022-10-13T16:25:15.107Z,14.50
2022-10-13T16:27:44.640Z,15.35
2022-10-13T16:30:13.422Z,17.75
2022-10-13T16:32:41.678Z,16.58
2022-10-13T16:35:10.002Z,17.35
2022-10-13T16:37:38.223Z,15.07
2022-10-13T16:40:07.052Z,14.20
2022-10-13T16:42:36.588Z,14.18
2022-10-13T16:45:05.337Z,13.80
2022-10-13T16:47:33.242Z,12.60
2022-10-13T16:50:01.979Z,12.52
2022-10-13T16:52:30.087Z,13.98
2022-10-13T16:54:58.149Z,12.60
2022-10-13T16:57:26.310Z,13.63
2022-10-13T16:59:55.333Z,13.10
2022-10-13T17:02:29.589Z,13.05
2022-10-13T17:04:57.810Z,17.05
2022-10-13T17:07:25.831Z,16.45
2022-10-13T17:09:53.900Z,15.82
2022-10-13T17:12:22.126Z,15.65
2022-10-13T17:14:49.994Z,16.25
2022-10-13T17:17:18.360Z,15.60
2022-10-13T17:19:46.719Z,24.15
2022-10-13T17:22:15.203Z,18.73
2022-10-13T17:24:48.315Z,15.70
2022-10-13T17:27:18.014Z,13.25
2022-10-13T17:29:46.743Z,14.07
2022-10-13T17:32:15.208Z,14.30
2022-10-13T17:34:43.205Z,16.30
2022-10-13T17:37:15.100Z,12.88
2022-10-13T17:39:43.182Z,12.70
2022-10-13T17:42:11.114Z,13.98
2022-10-13T17:44:40.594Z,13.73
2022-10-13T17:47:11.409Z,13.77
2022-10-13T17:49:43.296Z,13.52
2022-10-13T17:52:15.381Z,14.00
2022-10-13T17:54:43.710Z,14.57
2022-10-13T17:57:11.672Z,13.80
2022-10-13T17:59:40.058Z,13.18
2022-10-13T18:02:10.426Z,14.38
2022-10-13T18:04:38.579Z,13.75
2022-10-13T18:07:07.035Z,15.85
2022-10-13T18:09:35.166Z,15.25
2022-10-13T18:12:03.982Z,16.58
2022-10-13T18:14:32.726Z,14.90
2022-10-13T18:17:01.148Z,16.67
2022-10-13T18:19:29.305Z,15.98
2022-10-13T18:21:58.505Z,16.35
2022-10-13T18:24:26.806Z,16.80
2022-10-13T18:26:57.083Z,19.88
2022-10-13T18:29:25.471Z,19.80
2022-10-13T18:31:56.716Z,23.23
2022-10-13T18:34:25.037Z,22.13
2022-10-13T18:36:58.708Z,23.65
2022-10-13T18:39:29.092Z,21.10
2022-10-13T18:41:58.385Z,22.60
2022-10-13T18:44:35.283Z,23.88
2022-10-13T18:47:03.580Z,23.83
2022-10-13T18:49:31.696Z,20.65
2022-10-13T18:52:02.200Z,21.65
2022-10-13T18:54:31.015Z,24.38
2022-10-13T18:56:59.393Z,23.73
2022-10-13T18:59:28.331Z,31.98
2022-10-13T19:01:57.135Z,57.65
2022-10-13T19:04:26.868Z,67.18
2022-10-13T19:06:56.261Z,32.83
2022-10-13T19:09:26.472Z,21.65
2022-10-13T19:11:58.342Z,17.65
2022-10-13T19:14:27.498Z,15.80
2022-10-13T19:16:59.482Z,16.13
2022-10-13T19:19:31.217Z,17.10
2022-10-13T19:22:01.675Z,16.67
2022-10-13T19:24:29.864Z,15.13
2022-10-13T19:26:58.168Z,14.80
2022-10-13T19:29:26.270Z,15.75
2022-10-13T19:31:54.435Z,14.48
2022-10-13T19:34:23.479Z,14.32
2022-10-13T19:36:51.708Z,15.10
2022-10-13T19:39:24.327Z,14.73
2022-10-13T19:41:55.903Z,15.57
2022-10-13T19:46:54.333Z,14.77
2022-10-13T19:49:26.533Z,14.32
2022-10-13T19:51:56.237Z,15.70
2022-10-13T19:54:27.924Z,15.57
2022-10-13T19:56:58.617Z,14.43
2022-10-13T19:59:28.997Z,13.35
2022-10-13T20:01:58.111Z,13.82
2022-10-13T20:04:26.493Z,13.02
2022-10-13T20:06:54.777Z,13.63
2022-10-13T20:09:23.562Z,13.60
2022-10-13T20:11:52.226Z,13.77
2022-10-13T20:14:20.635Z,13.45
2022-10-13T20:16:49.007Z,14.50
2022-10-13T20:19:19.853Z,14.32
2022-10-13T20:21:51.928Z,14.07
2022-10-13T20:24:23.344Z,13.82
2022-10-13T20:26:51.322Z,12.13
2022-10-13T20:31:52.574Z,11.90
2022-10-13T20:34:20.670Z,12.35
2022-10-13T20:36:51.502Z,12.07
2022-10-13T20:39:20.353Z,10.85
2022-10-13T20:41:49.674Z,11.93
2022-10-13T20:44:18.594Z,11.82
2022-10-13T20:46:46.684Z,11.90
2022-10-13T20:49:15.220Z,12.57
2022-10-13T20:51:44.046Z,10.98
2022-10-13T20:54:16.888Z,10.73
2022-10-13T20:56:44.975Z,12.10
2022-10-13T20:59:18.038Z,11.45
2022-10-13T21:01:46.265Z,11.48
2022-10-13T21:04:15.013Z,10.77
2022-10-13T21:06:43.299Z,11.88
2022-10-13T21:09:11.780Z,11.45
2022-10-13T21:14:11.312Z,11.52
2022-10-13T21:16:40.977Z,13.98
2022-10-13T21:19:12.680Z,13.10
2022-10-13T21:21:41.299Z,12.93
2022-10-13T21:24:11.145Z,13.70
2022-10-13T21:26:41.326Z,12.32
2022-10-13T21:29:15.597Z,14.20
2022-10-13T21:31:43.731Z,13.13
2022-10-13T21:34:12.204Z,11.90
2022-10-13T21:36:44.452Z,11.75
2022-10-13T21:39:15.149Z,13.02
2022-10-13T21:41:43.568Z,13.93
2022-10-13T21:44:15.058Z,12.80
2022-10-13T21:46:42.963Z,13.43
2022-10-13T21:49:11.421Z,13.18
2022-10-13T21:51:40.793Z,12.90
2022-10-13T21:54:13.663Z,13.48
2022-10-13T21:56:42.781Z,13.20
2022-10-13T21:59:13.029Z,13.27
2022-10-13T22:01:42.635Z,12.90
2022-10-13T22:04:15.779Z,14.38
2022-10-13T22:06:44.251Z,13.35
2022-10-13T22:09:12.330Z,14.90
2022-10-13T22:11:41.351Z,14.75
2022-10-13T22:14:13.481Z,13.05
2022-10-13T22:16:50.405Z,13.35
2022-10-13T22:19:22.936Z,12.30
2022-10-13T22:21:51.481Z,11.80
2022-10-13T22:24:21.831Z,12.27
2022-10-13T22:26:50.516Z,10.93
2022-10-13T22:29:21.530Z,10.50
2022-10-13T22:31:51.426Z,10.68
2022-10-13T22:34:19.825Z,10.90
2022-10-13T22:36:47.863Z,11.43
2022-10-13T22:39:16.396Z,11.63
2022-10-13T22:41:44.725Z,10.52
2022-10-13T22:44:13.808Z,10.52
2022-10-13T22:46:42.208Z,10.15
2022-10-13T22:49:14.927Z,9.82
2022-10-13T22:51:43.050Z,10.20
2022-10-13T22:54:11.012Z,10.43
2022-10-13T22:56:40.442Z,9.07
2022-10-13T22:59:09.012Z,10.73
2022-10-13T23:01:37.240Z,10.48
2022-10-13T23:04:06.100Z,10.70
2022-10-13T23:06:35.379Z,9.82
2022-10-13T23:09:07.426Z,10.85
2022-10-13T23:11:36.609Z,10.40
2022-10-13T23:14:07.108Z,10.50
2022-10-13T23:16:35.670Z,11.00
2022-10-13T23:19:04.439Z,11.38
2022-10-13T23:21:32.663Z,11.52
2022-10-13T23:24:06.753Z,11.52
2022-10-13T23:26:35.328Z,11.48
2022-10-13T23:29:04.134Z,11.02
2022-10-13T23:31:32.191Z,10.90
2022-10-13T23:34:00.321Z,11.80
2022-10-13T23:36:31.727Z,12.40
2022-10-13T23:39:04.540Z,11.70
2022-10-13T23:41:33.314Z,12.02
2022-10-13T23:44:01.693Z,11.52
2022-10-13T23:46:29.977Z,11.25
2022-10-13T23:48:57.991Z,11.68
2022-10-13T23:51:26.735Z,12.02
2022-10-13T23:53:55.323Z,11.30
2022-10-13T23:56:23.871Z,11.15
2022-10-13T23:58:51.912Z,10.70
